Yellowstone National Park, Wyoming
Current Conditions -  °F | °C
As of 5:56 AM on Sunday 23 Nov 2014 (Local Time) from KDIJ Reporting Station
Broken Clouds Broken Clouds  
Wind Chill: 15°   Ceiling: 6000
Heat Index: 21°   Visibility: 10mi
Dew Point: 16°   Wind: 5mph
Humidity: 81%   Direction: 20°NNE
Pressure: 29.97"   Gusts: NA
Location:  44.5747°N, 110.518°W
Report Text: KDIJ 231256Z AUTO 02004KT 10SM BKN060 M06/M09 A2997 RMK AO2 T10611088 SLP168
Loading
Personal Weather Stations






























Interactive Weather Map New forecast layout! Learn more

10-Day Weather Forecast

Advertisements
Track Severe Weather on mobile